sensor_id;sensor_type;location;lat;lon;timestamp;P1;durP1;ratioP1;P2;durP2;ratioP2
48203;SDS011;33994;50.998;5.864;2022-11-11T00:00:40;12.68;;;2.50;;
48203;SDS011;33994;50.998;5.864;2022-11-11T00:03:44;9.73;;;2.65;;
48203;SDS011;33994;50.998;5.864;2022-11-11T00:06:48;9.07;;;2.67;;
48203;SDS011;33994;50.998;5.864;2022-11-11T00:09:52;4.63;;;2.13;;
48203;SDS011;33994;50.998;5.864;2022-11-11T00:13:02;6.00;;;1.90;;
48203;SDS011;33994;50.998;5.864;2022-11-11T00:16:11;6.50;;;2.42;;
48203;SDS011;33994;50.998;5.864;2022-11-11T00:19:17;6.70;;;2.10;;
48203;SDS011;33994;50.998;5.864;2022-11-11T00:22:39;6.57;;;1.90;;
48203;SDS011;33994;50.998;5.864;2022-11-11T00:26:00;6.28;;;2.03;;
48203;SDS011;33994;50.998;5.864;2022-11-11T00:29:07;9.10;;;2.08;;
48203;SDS011;33994;50.998;5.864;2022-11-11T00:32:10;3.17;;;1.83;;
48203;SDS011;33994;50.998;5.864;2022-11-11T00:35:29;7.68;;;2.60;;
48203;SDS011;33994;50.998;5.864;2022-11-11T00:38:50;9.30;;;4.25;;
48203;SDS011;33994;50.998;5.864;2022-11-11T00:41:57;6.32;;;2.03;;
48203;SDS011;33994;50.998;5.864;2022-11-11T00:45:01;8.60;;;2.58;;
48203;SDS011;33994;50.998;5.864;2022-11-11T00:48:07;5.38;;;2.05;;
48203;SDS011;33994;50.998;5.864;2022-11-11T00:51:29;7.53;;;1.98;;
48203;SDS011;33994;50.998;5.864;2022-11-11T00:54:33;12.27;;;2.75;;
48203;SDS011;33994;50.998;5.864;2022-11-11T00:57:37;6.45;;;2.10;;
48203;SDS011;33994;50.998;5.864;2022-11-11T01:00:42;14.63;;;2.65;;
48203;SDS011;33994;50.998;5.864;2022-11-11T01:03:46;10.52;;;2.45;;
48203;SDS011;33994;50.998;5.864;2022-11-11T01:06:50;7.55;;;2.25;;
48203;SDS011;33994;50.998;5.864;2022-11-11T01:09:54;6.63;;;2.35;;
48203;SDS011;33994;50.998;5.864;2022-11-11T01:12:58;12.77;;;3.25;;
48203;SDS011;33994;50.998;5.864;2022-11-11T01:16:15;9.38;;;2.45;;
48203;SDS011;33994;50.998;5.864;2022-11-11T01:19:22;9.73;;;2.47;;
48203;SDS011;33994;50.998;5.864;2022-11-11T01:22:26;5.90;;;2.30;;
48203;SDS011;33994;50.998;5.864;2022-11-11T01:25:34;9.57;;;2.40;;
48203;SDS011;33994;50.998;5.864;2022-11-11T01:31:42;6.22;;;2.03;;
48203;SDS011;33994;50.998;5.864;2022-11-11T01:34:46;10.48;;;2.20;;
48203;SDS011;33994;50.998;5.864;2022-11-11T01:37:50;5.85;;;2.08;;
48203;SDS011;33994;50.998;5.864;2022-11-11T01:40:54;5.97;;;2.40;;
48203;SDS011;33994;50.998;5.864;2022-11-11T01:47:14;7.25;;;2.40;;
48203;SDS011;33994;50.998;5.864;2022-11-11T01:50:20;4.85;;;1.92;;
48203;SDS011;33994;50.998;5.864;2022-11-11T01:53:24;7.78;;;2.35;;
48203;SDS011;33994;50.998;5.864;2022-11-11T01:56:27;6.47;;;2.50;;
48203;SDS011;33994;50.998;5.864;2022-11-11T01:59:33;7.85;;;2.97;;
48203;SDS011;33994;50.998;5.864;2022-11-11T02:03:14;8.55;;;2.80;;
48203;SDS011;33994;50.998;5.864;2022-11-11T02:06:12;6.85;;;2.30;;
48203;SDS011;33994;50.998;5.864;2022-11-11T02:09:15;7.10;;;2.80;;
48203;SDS011;33994;50.998;5.864;2022-11-11T02:12:19;10.90;;;2.92;;
48203;SDS011;33994;50.998;5.864;2022-11-11T02:15:41;5.25;;;2.40;;
48203;SDS011;33994;50.998;5.864;2022-11-11T02:18:45;8.23;;;2.70;;
48203;SDS011;33994;50.998;5.864;2022-11-11T02:21:52;6.50;;;3.00;;
48203;SDS011;33994;50.998;5.864;2022-11-11T02:25:01;9.23;;;2.63;;
48203;SDS011;33994;50.998;5.864;2022-11-11T02:28:07;9.10;;;3.00;;
48203;SDS011;33994;50.998;5.864;2022-11-11T02:31:13;7.95;;;2.50;;
48203;SDS011;33994;50.998;5.864;2022-11-11T02:34:17;8.35;;;3.13;;
48203;SDS011;33994;50.998;5.864;2022-11-11T02:37:22;12.25;;;2.65;;
48203;SDS011;33994;50.998;5.864;2022-11-11T02:40:29;7.47;;;2.47;;
48203;SDS011;33994;50.998;5.864;2022-11-11T02:43:38;10.25;;;2.63;;
48203;SDS011;33994;50.998;5.864;2022-11-11T02:46:41;6.85;;;2.63;;
48203;SDS011;33994;50.998;5.864;2022-11-11T02:49:45;5.88;;;2.63;;
48203;SDS011;33994;50.998;5.864;2022-11-11T02:52:49;10.30;;;2.13;;
48203;SDS011;33994;50.998;5.864;2022-11-11T02:55:53;8.85;;;2.60;;
48203;SDS011;33994;50.998;5.864;2022-11-11T02:58:56;7.95;;;2.58;;
48203;SDS011;33994;50.998;5.864;2022-11-11T03:02:00;6.38;;;2.67;;
48203;SDS011;33994;50.998;5.864;2022-11-11T03:05:04;7.55;;;2.15;;
48203;SDS011;33994;50.998;5.864;2022-11-11T03:08:08;8.20;;;2.60;;
48203;SDS011;33994;50.998;5.864;2022-11-11T03:11:12;6.90;;;2.90;;
48203;SDS011;33994;50.998;5.864;2022-11-11T03:14:16;7.63;;;2.40;;
48203;SDS011;33994;50.998;5.864;2022-11-11T03:17:20;7.70;;;2.65;;
48203;SDS011;33994;50.998;5.864;2022-11-11T03:20:44;13.80;;;2.67;;
48203;SDS011;33994;50.998;5.864;2022-11-11T03:24:04;7.25;;;2.70;;
48203;SDS011;33994;50.998;5.864;2022-11-11T03:27:09;7.20;;;2.42;;
48203;SDS011;33994;50.998;5.864;2022-11-11T03:30:13;7.85;;;2.38;;
48203;SDS011;33994;50.998;5.864;2022-11-11T03:33:17;10.27;;;2.72;;
48203;SDS011;33994;50.998;5.864;2022-11-11T03:36:21;9.68;;;2.67;;
48203;SDS011;33994;50.998;5.864;2022-11-11T03:39:46;10.70;;;2.40;;
48203;SDS011;33994;50.998;5.864;2022-11-11T03:42:49;10.40;;;2.50;;
48203;SDS011;33994;50.998;5.864;2022-11-11T03:45:53;5.43;;;1.80;;
48203;SDS011;33994;50.998;5.864;2022-11-11T03:52:05;6.53;;;2.35;;
48203;SDS011;33994;50.998;5.864;2022-11-11T03:55:09;5.47;;;2.10;;
48203;SDS011;33994;50.998;5.864;2022-11-11T03:58:13;7.88;;;2.45;;
48203;SDS011;33994;50.998;5.864;2022-11-11T04:01:18;6.30;;;2.00;;
48203;SDS011;33994;50.998;5.864;2022-11-11T04:04:36;4.88;;;2.15;;
48203;SDS011;33994;50.998;5.864;2022-11-11T04:07:58;6.47;;;2.03;;
48203;SDS011;33994;50.998;5.864;2022-11-11T04:11:24;6.90;;;1.60;;
48203;SDS011;33994;50.998;5.864;2022-11-11T04:14:31;5.40;;;1.70;;
48203;SDS011;33994;50.998;5.864;2022-11-11T04:17:53;6.85;;;1.92;;
48203;SDS011;33994;50.998;5.864;2022-11-11T04:20:56;6.15;;;2.00;;
48203;SDS011;33994;50.998;5.864;2022-11-11T04:24:19;5.35;;;1.88;;
48203;SDS011;33994;50.998;5.864;2022-11-11T04:27:41;4.38;;;1.50;;
48203;SDS011;33994;50.998;5.864;2022-11-11T04:30:45;5.25;;;1.90;;
48203;SDS011;33994;50.998;5.864;2022-11-11T04:33:48;4.57;;;2.13;;
48203;SDS011;33994;50.998;5.864;2022-11-11T04:36:52;4.03;;;1.60;;
48203;SDS011;33994;50.998;5.864;2022-11-11T04:39:56;7.85;;;1.67;;
48203;SDS011;33994;50.998;5.864;2022-11-11T04:43:18;3.25;;;1.10;;
48203;SDS011;33994;50.998;5.864;2022-11-11T04:46:22;5.45;;;1.60;;
48203;SDS011;33994;50.998;5.864;2022-11-11T04:49:24;4.82;;;1.95;;
48203;SDS011;33994;50.998;5.864;2022-11-11T04:52:28;4.82;;;1.50;;
48203;SDS011;33994;50.998;5.864;2022-11-11T04:55:32;4.78;;;1.50;;
48203;SDS011;33994;50.998;5.864;2022-11-11T04:58:54;4.43;;;1.23;;
48203;SDS011;33994;50.998;5.864;2022-11-11T05:02:12;6.07;;;1.65;;
48203;SDS011;33994;50.998;5.864;2022-11-11T05:05:34;6.30;;;1.50;;
48203;SDS011;33994;50.998;5.864;2022-11-11T05:08:52;4.83;;;1.53;;
48203;SDS011;33994;50.998;5.864;2022-11-11T05:11:58;4.00;;;1.55;;
48203;SDS011;33994;50.998;5.864;2022-11-11T05:15:02;7.30;;;1.42;;
48203;SDS011;33994;50.998;5.864;2022-11-11T05:18:24;7.05;;;1.70;;
48203;SDS011;33994;50.998;5.864;2022-11-11T05:21:46;6.35;;;1.40;;
48203;SDS011;33994;50.998;5.864;2022-11-11T05:24:50;8.95;;;2.13;;
48203;SDS011;33994;50.998;5.864;2022-11-11T05:28:12;3.10;;;1.42;;
48203;SDS011;33994;50.998;5.864;2022-11-11T05:31:16;6.70;;;1.80;;
48203;SDS011;33994;50.998;5.864;2022-11-11T05:34:20;5.68;;;1.30;;
48203;SDS011;33994;50.998;5.864;2022-11-11T05:37:24;7.18;;;1.60;;
48203;SDS011;33994;50.998;5.864;2022-11-11T05:40:28;8.00;;;2.00;;
48203;SDS011;33994;50.998;5.864;2022-11-11T05:43:32;4.05;;;1.67;;
48203;SDS011;33994;50.998;5.864;2022-11-11T05:46:36;3.30;;;1.23;;
48203;SDS011;33994;50.998;5.864;2022-11-11T05:49:40;4.90;;;1.60;;
48203;SDS011;33994;50.998;5.864;2022-11-11T05:52:47;6.22;;;1.70;;
48203;SDS011;33994;50.998;5.864;2022-11-11T05:58:56;4.90;;;1.50;;
48203;SDS011;33994;50.998;5.864;2022-11-11T06:02:00;2.85;;;1.10;;
48203;SDS011;33994;50.998;5.864;2022-11-11T06:05:04;2.65;;;1.13;;
48203;SDS011;33994;50.998;5.864;2022-11-11T06:08:09;2.95;;;1.50;;
48203;SDS011;33994;50.998;5.864;2022-11-11T06:11:14;3.17;;;1.33;;
48203;SDS011;33994;50.998;5.864;2022-11-11T06:14:18;2.92;;;1.08;;
48203;SDS011;33994;50.998;5.864;2022-11-11T06:17:21;5.10;;;1.10;;
48203;SDS011;33994;50.998;5.864;2022-11-11T06:20:25;7.85;;;1.50;;
48203;SDS011;33994;50.998;5.864;2022-11-11T06:23:30;6.43;;;1.27;;
48203;SDS011;33994;50.998;5.864;2022-11-11T06:26:34;3.72;;;1.50;;
48203;SDS011;33994;50.998;5.864;2022-11-11T06:29:38;2.70;;;1.50;;
48203;SDS011;33994;50.998;5.864;2022-11-11T06:32:41;3.53;;;2.17;;
48203;SDS011;33994;50.998;5.864;2022-11-11T06:35:45;2.95;;;1.15;;
48203;SDS011;33994;50.998;5.864;2022-11-11T06:38:51;4.50;;;1.13;;
48203;SDS011;33994;50.998;5.864;2022-11-11T06:41:55;4.93;;;1.40;;
48203;SDS011;33994;50.998;5.864;2022-11-11T06:44:58;4.53;;;1.38;;
48203;SDS011;33994;50.998;5.864;2022-11-11T06:48:03;4.32;;;1.50;;
48203;SDS011;33994;50.998;5.864;2022-11-11T06:51:08;2.53;;;1.23;;
48203;SDS011;33994;50.998;5.864;2022-11-11T06:54:14;4.00;;;1.30;;
48203;SDS011;33994;50.998;5.864;2022-11-11T06:57:17;3.53;;;1.50;;
48203;SDS011;33994;50.998;5.864;2022-11-11T07:00:21;6.47;;;1.40;;
48203;SDS011;33994;50.998;5.864;2022-11-11T07:03:25;4.10;;;1.55;;
48203;SDS011;33994;50.998;5.864;2022-11-11T07:06:28;2.75;;;1.25;;
48203;SDS011;33994;50.998;5.864;2022-11-11T07:09:32;2.42;;;1.33;;
48203;SDS011;33994;50.998;5.864;2022-11-11T07:12:39;5.35;;;1.58;;
48203;SDS011;33994;50.998;5.864;2022-11-11T07:15:43;6.70;;;1.30;;
48203;SDS011;33994;50.998;5.864;2022-11-11T07:18:48;4.25;;;1.80;;
48203;SDS011;33994;50.998;5.864;2022-11-11T07:21:52;2.60;;;1.60;;
48203;SDS011;33994;50.998;5.864;2022-11-11T07:24:56;5.10;;;1.40;;
48203;SDS011;33994;50.998;5.864;2022-11-11T07:28:00;8.63;;;1.52;;
48203;SDS011;33994;50.998;5.864;2022-11-11T07:31:04;3.95;;;1.40;;
48203;SDS011;33994;50.998;5.864;2022-11-11T07:34:08;3.22;;;1.38;;
48203;SDS011;33994;50.998;5.864;2022-11-11T07:37:12;2.85;;;1.30;;
48203;SDS011;33994;50.998;5.864;2022-11-11T07:40:17;11.98;;;1.65;;
48203;SDS011;33994;50.998;5.864;2022-11-11T07:43:22;5.05;;;1.20;;
48203;SDS011;33994;50.998;5.864;2022-11-11T07:46:27;7.28;;;1.30;;
48203;SDS011;33994;50.998;5.864;2022-11-11T07:49:31;15.52;;;2.10;;
48203;SDS011;33994;50.998;5.864;2022-11-11T07:52:35;6.88;;;1.50;;
48203;SDS011;33994;50.998;5.864;2022-11-11T07:55:39;3.55;;;1.30;;
48203;SDS011;33994;50.998;5.864;2022-11-11T07:58:43;3.03;;;1.30;;
48203;SDS011;33994;50.998;5.864;2022-11-11T08:01:47;5.05;;;1.33;;
48203;SDS011;33994;50.998;5.864;2022-11-11T08:04:51;3.88;;;0.90;;
48203;SDS011;33994;50.998;5.864;2022-11-11T08:07:55;3.38;;;1.23;;
48203;SDS011;33994;50.998;5.864;2022-11-11T08:10:59;3.97;;;1.20;;
48203;SDS011;33994;50.998;5.864;2022-11-11T08:14:03;8.88;;;1.40;;
48203;SDS011;33994;50.998;5.864;2022-11-11T08:17:05;17.88;;;1.65;;
48203;SDS011;33994;50.998;5.864;2022-11-11T08:20:10;23.67;;;1.83;;
48203;SDS011;33994;50.998;5.864;2022-11-11T08:23:14;13.52;;;2.03;;
48203;SDS011;33994;50.998;5.864;2022-11-11T08:26:23;34.15;;;2.95;;
48203;SDS011;33994;50.998;5.864;2022-11-11T08:29:28;8.90;;;1.10;;
48203;SDS011;33994;50.998;5.864;2022-11-11T08:32:31;8.60;;;1.50;;
48203;SDS011;33994;50.998;5.864;2022-11-11T08:35:36;2.78;;;1.17;;
48203;SDS011;33994;50.998;5.864;2022-11-11T08:38:40;2.95;;;1.08;;
48203;SDS011;33994;50.998;5.864;2022-11-11T08:41:44;6.18;;;1.15;;
48203;SDS011;33994;50.998;5.864;2022-11-11T08:44:48;5.32;;;1.58;;
48203;SDS011;33994;50.998;5.864;2022-11-11T08:47:53;2.05;;;0.90;;
48203;SDS011;33994;50.998;5.864;2022-11-11T08:50:57;2.63;;;1.25;;
48203;SDS011;33994;50.998;5.864;2022-11-11T08:54:01;2.67;;;1.02;;
48203;SDS011;33994;50.998;5.864;2022-11-11T08:57:05;4.97;;;1.25;;
48203;SDS011;33994;50.998;5.864;2022-11-11T09:00:09;8.45;;;1.58;;
48203;SDS011;33994;50.998;5.864;2022-11-11T09:03:14;6.65;;;1.70;;
48203;SDS011;33994;50.998;5.864;2022-11-11T09:06:18;4.47;;;1.10;;
48203;SDS011;33994;50.998;5.864;2022-11-11T09:09:23;4.25;;;1.60;;
48203;SDS011;33994;50.998;5.864;2022-11-11T09:12:27;6.40;;;2.70;;
48203;SDS011;33994;50.998;5.864;2022-11-11T09:15:31;13.55;;;2.63;;
48203;SDS011;33994;50.998;5.864;2022-11-11T09:18:35;8.07;;;2.47;;
48203;SDS011;33994;50.998;5.864;2022-11-11T09:21:39;6.07;;;2.10;;
48203;SDS011;33994;50.998;5.864;2022-11-11T09:24:43;6.78;;;1.50;;
48203;SDS011;33994;50.998;5.864;2022-11-11T09:27:54;3.08;;;1.63;;
48203;SDS011;33994;50.998;5.864;2022-11-11T09:30:59;5.05;;;1.27;;
48203;SDS011;33994;50.998;5.864;2022-11-11T09:34:04;3.85;;;1.23;;
48203;SDS011;33994;50.998;5.864;2022-11-11T09:37:09;3.92;;;1.50;;
48203;SDS011;33994;50.998;5.864;2022-11-11T09:40:16;7.90;;;1.50;;
48203;SDS011;33994;50.998;5.864;2022-11-11T09:50:24;9.40;;;1.90;;
48203;SDS011;33994;50.998;5.864;2022-11-11T09:53:33;2.90;;;1.50;;
48203;SDS011;33994;50.998;5.864;2022-11-11T09:56:41;8.82;;;1.20;;
48203;SDS011;33994;50.998;5.864;2022-11-11T09:59:47;6.93;;;1.40;;
48203;SDS011;33994;50.998;5.864;2022-11-11T10:09:18;8.20;;;1.58;;
48203;SDS011;33994;50.998;5.864;2022-11-11T10:12:53;2.67;;;1.27;;
48203;SDS011;33994;50.998;5.864;2022-11-11T10:19:38;5.68;;;1.90;;
48203;SDS011;33994;50.998;5.864;2022-11-11T10:23:02;4.00;;;1.55;;
48203;SDS011;33994;50.998;5.864;2022-11-11T10:26:17;4.18;;;1.85;;
48203;SDS011;33994;50.998;5.864;2022-11-11T10:29:23;5.63;;;2.13;;
48203;SDS011;33994;50.998;5.864;2022-11-11T10:32:31;4.03;;;2.50;;
48203;SDS011;33994;50.998;5.864;2022-11-11T10:35:37;6.53;;;2.30;;
48203;SDS011;33994;50.998;5.864;2022-11-11T10:38:46;7.75;;;3.17;;
48203;SDS011;33994;50.998;5.864;2022-11-11T10:41:57;12.43;;;4.07;;
48203;SDS011;33994;50.998;5.864;2022-11-11T10:45:02;11.43;;;3.90;;
48203;SDS011;33994;50.998;5.864;2022-11-11T10:48:16;18.90;;;5.32;;
48203;SDS011;33994;50.998;5.864;2022-11-11T10:51:25;15.25;;;4.32;;
48203;SDS011;33994;50.998;5.864;2022-11-11T11:00:59;8.07;;;3.88;;
48203;SDS011;33994;50.998;5.864;2022-11-11T11:04:07;12.80;;;5.90;;
48203;SDS011;33994;50.998;5.864;2022-11-11T11:07:20;9.20;;;4.50;;
48203;SDS011;33994;50.998;5.864;2022-11-11T11:10:33;7.53;;;4.30;;
48203;SDS011;33994;50.998;5.864;2022-11-11T11:13:50;11.43;;;4.40;;
48203;SDS011;33994;50.998;5.864;2022-11-11T11:16:57;9.73;;;4.38;;
48203;SDS011;33994;50.998;5.864;2022-11-11T11:20:09;7.05;;;3.88;;
48203;SDS011;33994;50.998;5.864;2022-11-11T11:23:40;19.10;;;4.97;;
48203;SDS011;33994;50.998;5.864;2022-11-11T11:26:46;65.32;;;10.88;;
48203;SDS011;33994;50.998;5.864;2022-11-11T11:29:53;23.70;;;6.28;;
48203;SDS011;33994;50.998;5.864;2022-11-11T11:36:16;12.70;;;2.95;;
48203;SDS011;33994;50.998;5.864;2022-11-11T11:39:31;5.43;;;2.13;;
48203;SDS011;33994;50.998;5.864;2022-11-11T11:42:37;6.57;;;2.20;;
48203;SDS011;33994;50.998;5.864;2022-11-11T11:45:42;3.53;;;1.48;;
48203;SDS011;33994;50.998;5.864;2022-11-11T11:52:49;3.55;;;1.40;;
48203;SDS011;33994;50.998;5.864;2022-11-11T11:55:56;3.67;;;1.50;;
48203;SDS011;33994;50.998;5.864;2022-11-11T12:06:24;3.83;;;2.75;;
48203;SDS011;33994;50.998;5.864;2022-11-11T12:09:49;5.55;;;1.60;;
48203;SDS011;33994;50.998;5.864;2022-11-11T12:16:39;4.28;;;1.67;;
48203;SDS011;33994;50.998;5.864;2022-11-11T12:26:53;3.47;;;1.50;;
48203;SDS011;33994;50.998;5.864;2022-11-11T12:30:10;3.95;;;1.40;;
48203;SDS011;33994;50.998;5.864;2022-11-11T12:50:36;72.65;;;6.40;;
48203;SDS011;33994;50.998;5.864;2022-11-11T12:53:58;73.95;;;6.95;;
48203;SDS011;33994;50.998;5.864;2022-11-11T12:57:24;22.88;;;3.22;;
48203;SDS011;33994;50.998;5.864;2022-11-11T13:00:40;117.55;;;11.20;;
48203;SDS011;33994;50.998;5.864;2022-11-11T13:16:49;52.85;;;6.63;;
48203;SDS011;33994;50.998;5.864;2022-11-11T13:20:02;57.88;;;6.90;;
48203;SDS011;33994;50.998;5.864;2022-11-11T13:23:17;55.13;;;6.07;;
48203;SDS011;33994;50.998;5.864;2022-11-11T13:26:23;94.72;;;13.80;;
48203;SDS011;33994;50.998;5.864;2022-11-11T13:29:45;20.63;;;5.00;;
48203;SDS011;33994;50.998;5.864;2022-11-11T13:33:21;7.30;;;1.52;;
48203;SDS011;33994;50.998;5.864;2022-11-11T13:36:28;4.72;;;2.17;;
48203;SDS011;33994;50.998;5.864;2022-11-11T13:39:46;5.28;;;1.85;;
48203;SDS011;33994;50.998;5.864;2022-11-11T13:42:52;11.45;;;1.80;;
48203;SDS011;33994;50.998;5.864;2022-11-11T13:45:57;31.13;;;2.92;;
48203;SDS011;33994;50.998;5.864;2022-11-11T13:49:04;8.48;;;1.77;;
48203;SDS011;33994;50.998;5.864;2022-11-11T13:55:36;391.85;;;36.65;;
48203;SDS011;33994;50.998;5.864;2022-11-11T13:58:43;120.07;;;12.88;;
48203;SDS011;33994;50.998;5.864;2022-11-11T14:05:16;34.92;;;4.22;;
48203;SDS011;33994;50.998;5.864;2022-11-11T14:11:48;296.60;;;24.05;;
48203;SDS011;33994;50.998;5.864;2022-11-11T14:14:55;168.80;;;16.20;;
48203;SDS011;33994;50.998;5.864;2022-11-11T14:18:00;187.15;;;18.05;;
48203;SDS011;33994;50.998;5.864;2022-11-11T14:21:06;60.45;;;6.88;;
48203;SDS011;33994;50.998;5.864;2022-11-11T14:24:20;9.77;;;2.47;;
48203;SDS011;33994;50.998;5.864;2022-11-11T14:27:29;10.27;;;2.72;;
48203;SDS011;33994;50.998;5.864;2022-11-11T14:30:39;9.25;;;2.75;;
48203;SDS011;33994;50.998;5.864;2022-11-11T14:33:48;5.10;;;2.20;;
48203;SDS011;33994;50.998;5.864;2022-11-11T14:37:00;5.40;;;2.00;;
48203;SDS011;33994;50.998;5.864;2022-11-11T14:40:28;5.68;;;2.00;;
48203;SDS011;33994;50.998;5.864;2022-11-11T14:43:35;7.03;;;2.10;;
48203;SDS011;33994;50.998;5.864;2022-11-11T14:53:44;5.85;;;2.40;;
48203;SDS011;33994;50.998;5.864;2022-11-11T14:56:57;10.80;;;2.25;;
48203;SDS011;33994;50.998;5.864;2022-11-11T15:03:30;7.28;;;1.85;;
48203;SDS011;33994;50.998;5.864;2022-11-11T15:23:56;6.50;;;2.10;;
48203;SDS011;33994;50.998;5.864;2022-11-11T15:30:22;6.15;;;2.03;;
48203;SDS011;33994;50.998;5.864;2022-11-11T15:36:53;8.65;;;2.30;;
48203;SDS011;33994;50.998;5.864;2022-11-11T15:40:00;8.63;;;2.47;;
48203;SDS011;33994;50.998;5.864;2022-11-11T15:43:09;7.82;;;2.55;;
48203;SDS011;33994;50.998;5.864;2022-11-11T15:46:24;5.97;;;2.33;;
48203;SDS011;33994;50.998;5.864;2022-11-11T15:49:45;7.60;;;2.30;;
48203;SDS011;33994;50.998;5.864;2022-11-11T15:52:59;5.22;;;2.00;;
48203;SDS011;33994;50.998;5.864;2022-11-11T15:56:04;6.05;;;2.70;;
48203;SDS011;33994;50.998;5.864;2022-11-11T15:59:28;6.65;;;3.03;;
48203;SDS011;33994;50.998;5.864;2022-11-11T16:02:39;10.00;;;2.70;;
48203;SDS011;33994;50.998;5.864;2022-11-11T16:05:44;7.40;;;2.47;;
48203;SDS011;33994;50.998;5.864;2022-11-11T16:08:50;6.78;;;3.47;;
48203;SDS011;33994;50.998;5.864;2022-11-11T16:11:58;5.93;;;3.08;;
48203;SDS011;33994;50.998;5.864;2022-11-11T16:15:02;9.85;;;3.60;;
48203;SDS011;33994;50.998;5.864;2022-11-11T16:18:12;11.38;;;4.13;;
48203;SDS011;33994;50.998;5.864;2022-11-11T16:21:22;11.30;;;4.53;;
48203;SDS011;33994;50.998;5.864;2022-11-11T16:24:33;8.57;;;4.25;;
48203;SDS011;33994;50.998;5.864;2022-11-11T16:27:40;10.73;;;3.60;;
48203;SDS011;33994;50.998;5.864;2022-11-11T16:30:44;8.02;;;3.33;;
48203;SDS011;33994;50.998;5.864;2022-11-11T16:33:54;6.68;;;3.90;;
48203;SDS011;33994;50.998;5.864;2022-11-11T16:43:39;8.20;;;4.20;;
48203;SDS011;33994;50.998;5.864;2022-11-11T16:46:45;13.55;;;4.53;;
48203;SDS011;33994;50.998;5.864;2022-11-11T16:49:50;7.88;;;4.10;;
48203;SDS011;33994;50.998;5.864;2022-11-11T16:53:08;10.88;;;4.00;;
48203;SDS011;33994;50.998;5.864;2022-11-11T16:56:29;12.02;;;4.30;;
48203;SDS011;33994;50.998;5.864;2022-11-11T16:59:39;8.63;;;4.10;;
48203;SDS011;33994;50.998;5.864;2022-11-11T17:06:13;11.63;;;4.13;;
48203;SDS011;33994;50.998;5.864;2022-11-11T17:12:34;7.47;;;4.18;;
48203;SDS011;33994;50.998;5.864;2022-11-11T17:15:39;9.25;;;5.25;;
48203;SDS011;33994;50.998;5.864;2022-11-11T17:18:43;14.68;;;6.43;;
48203;SDS011;33994;50.998;5.864;2022-11-11T17:21:47;11.05;;;5.60;;
48203;SDS011;33994;50.998;5.864;2022-11-11T17:24:52;13.52;;;6.22;;
48203;SDS011;33994;50.998;5.864;2022-11-11T17:27:55;13.85;;;6.93;;
48203;SDS011;33994;50.998;5.864;2022-11-11T17:31:06;15.65;;;7.38;;
48203;SDS011;33994;50.998;5.864;2022-11-11T17:34:11;13.60;;;7.45;;
48203;SDS011;33994;50.998;5.864;2022-11-11T17:37:15;12.38;;;7.47;;
48203;SDS011;33994;50.998;5.864;2022-11-11T17:40:19;19.17;;;7.97;;
48203;SDS011;33994;50.998;5.864;2022-11-11T17:43:23;14.40;;;7.45;;
48203;SDS011;33994;50.998;5.864;2022-11-11T17:46:27;13.15;;;7.03;;
48203;SDS011;33994;50.998;5.864;2022-11-11T17:49:31;12.32;;;7.03;;
48203;SDS011;33994;50.998;5.864;2022-11-11T17:52:35;12.15;;;6.50;;
48203;SDS011;33994;50.998;5.864;2022-11-11T17:55:40;13.88;;;6.15;;
48203;SDS011;33994;50.998;5.864;2022-11-11T17:58:44;12.80;;;6.78;;
48203;SDS011;33994;50.998;5.864;2022-11-11T18:01:48;11.77;;;6.40;;
48203;SDS011;33994;50.998;5.864;2022-11-11T18:04:52;12.18;;;6.53;;
48203;SDS011;33994;50.998;5.864;2022-11-11T18:07:59;12.75;;;6.75;;
48203;SDS011;33994;50.998;5.864;2022-11-11T18:11:04;14.95;;;6.75;;
48203;SDS011;33994;50.998;5.864;2022-11-11T18:14:10;16.03;;;8.20;;
48203;SDS011;33994;50.998;5.864;2022-11-11T18:17:18;14.93;;;7.05;;
48203;SDS011;33994;50.998;5.864;2022-11-11T18:20:22;12.00;;;7.47;;
48203;SDS011;33994;50.998;5.864;2022-11-11T18:23:28;12.98;;;7.30;;
48203;SDS011;33994;50.998;5.864;2022-11-11T18:26:34;11.57;;;6.93;;
48203;SDS011;33994;50.998;5.864;2022-11-11T18:29:39;11.25;;;7.28;;
48203;SDS011;33994;50.998;5.864;2022-11-11T18:32:43;16.42;;;8.60;;
48203;SDS011;33994;50.998;5.864;2022-11-11T18:35:48;15.50;;;9.32;;
48203;SDS011;33994;50.998;5.864;2022-11-11T18:38:53;16.45;;;9.52;;
48203;SDS011;33994;50.998;5.864;2022-11-11T18:41:58;14.30;;;9.02;;
48203;SDS011;33994;50.998;5.864;2022-11-11T18:45:02;16.92;;;9.40;;
48203;SDS011;33994;50.998;5.864;2022-11-11T18:48:06;16.10;;;9.45;;
48203;SDS011;33994;50.998;5.864;2022-11-11T18:51:14;18.20;;;9.82;;
48203;SDS011;33994;50.998;5.864;2022-11-11T18:54:19;15.85;;;9.90;;
48203;SDS011;33994;50.998;5.864;2022-11-11T18:57:24;15.18;;;9.30;;
48203;SDS011;33994;50.998;5.864;2022-11-11T19:00:28;17.08;;;10.65;;
48203;SDS011;33994;50.998;5.864;2022-11-11T19:03:32;20.92;;;9.95;;
48203;SDS011;33994;50.998;5.864;2022-11-11T19:06:37;16.15;;;9.70;;
48203;SDS011;33994;50.998;5.864;2022-11-11T19:09:42;14.70;;;9.13;;
48203;SDS011;33994;50.998;5.864;2022-11-11T19:12:46;21.75;;;10.40;;
48203;SDS011;33994;50.998;5.864;2022-11-11T19:15:50;17.42;;;10.05;;
48203;SDS011;33994;50.998;5.864;2022-11-11T19:18:55;19.52;;;10.40;;
48203;SDS011;33994;50.998;5.864;2022-11-11T19:21:59;22.02;;;10.93;;
48203;SDS011;33994;50.998;5.864;2022-11-11T19:25:03;19.75;;;10.65;;
48203;SDS011;33994;50.998;5.864;2022-11-11T19:28:09;16.75;;;10.90;;
48203;SDS011;33994;50.998;5.864;2022-11-11T19:31:14;19.27;;;11.20;;
48203;SDS011;33994;50.998;5.864;2022-11-11T19:34:20;22.63;;;11.57;;
48203;SDS011;33994;50.998;5.864;2022-11-11T19:37:24;25.23;;;11.73;;
48203;SDS011;33994;50.998;5.864;2022-11-11T19:40:28;18.63;;;10.75;;
48203;SDS011;33994;50.998;5.864;2022-11-11T19:43:32;21.63;;;10.00;;
48203;SDS011;33994;50.998;5.864;2022-11-11T19:46:37;19.30;;;10.75;;
48203;SDS011;33994;50.998;5.864;2022-11-11T19:49:41;19.95;;;11.70;;
48203;SDS011;33994;50.998;5.864;2022-11-11T19:52:44;19.90;;;12.45;;
48203;SDS011;33994;50.998;5.864;2022-11-11T19:55:58;21.85;;;13.48;;
48203;SDS011;33994;50.998;5.864;2022-11-11T19:59:03;22.42;;;13.00;;
48203;SDS011;33994;50.998;5.864;2022-11-11T20:02:08;19.38;;;12.68;;
48203;SDS011;33994;50.998;5.864;2022-11-11T20:05:12;27.27;;;14.95;;
48203;SDS011;33994;50.998;5.864;2022-11-11T20:08:15;20.33;;;13.38;;
48203;SDS011;33994;50.998;5.864;2022-11-11T20:11:19;25.77;;;13.93;;
48203;SDS011;33994;50.998;5.864;2022-11-11T20:14:24;23.48;;;13.60;;
48203;SDS011;33994;50.998;5.864;2022-11-11T20:17:28;25.67;;;14.07;;
48203;SDS011;33994;50.998;5.864;2022-11-11T20:20:32;26.13;;;15.32;;
48203;SDS011;33994;50.998;5.864;2022-11-11T20:23:37;22.15;;;14.43;;
48203;SDS011;33994;50.998;5.864;2022-11-11T20:26:42;26.17;;;14.50;;
48203;SDS011;33994;50.998;5.864;2022-11-11T20:29:46;23.38;;;14.82;;
48203;SDS011;33994;50.998;5.864;2022-11-11T20:32:52;25.52;;;14.48;;
48203;SDS011;33994;50.998;5.864;2022-11-11T20:35:59;22.25;;;13.85;;
48203;SDS011;33994;50.998;5.864;2022-11-11T20:39:04;22.50;;;13.27;;
48203;SDS011;33994;50.998;5.864;2022-11-11T20:42:08;24.30;;;14.00;;
48203;SDS011;33994;50.998;5.864;2022-11-11T20:45:12;24.63;;;14.77;;
48203;SDS011;33994;50.998;5.864;2022-11-11T20:48:16;21.27;;;13.43;;
48203;SDS011;33994;50.998;5.864;2022-11-11T20:51:22;20.30;;;12.80;;
48203;SDS011;33994;50.998;5.864;2022-11-11T20:54:26;18.15;;;12.10;;
48203;SDS011;33994;50.998;5.864;2022-11-11T20:57:33;21.23;;;13.80;;
48203;SDS011;33994;50.998;5.864;2022-11-11T21:00:38;23.27;;;14.83;;
48203;SDS011;33994;50.998;5.864;2022-11-11T21:03:41;21.58;;;14.05;;
48203;SDS011;33994;50.998;5.864;2022-11-11T21:06:46;22.23;;;14.05;;
48203;SDS011;33994;50.998;5.864;2022-11-11T21:09:50;22.08;;;13.50;;